sensor_id;sensor_type;location;lat;lon;timestamp;pressure;altitude;pressure_sealevel;temperature;humidity
63700;BME280;49845;47.130;142.766;2024-01-30T00:01:20;101306.22;;;-6.13;89.81
63700;BME280;49845;47.130;142.766;2024-01-30T00:03:51;101302.38;;;-5.95;91.62
63700;BME280;49845;47.130;142.766;2024-01-30T00:06:23;101301.09;;;-5.75;93.41
63700;BME280;49845;47.130;142.766;2024-01-30T00:08:53;101308.66;;;-5.50;94.45
63700;BME280;49845;47.130;142.766;2024-01-30T00:11:24;101303.47;;;-5.25;94.37
63700;BME280;49845;47.130;142.766;2024-01-30T00:13:56;101295.06;;;-5.10;94.23
63700;BME280;49845;47.130;142.766;2024-01-30T00:16:27;101299.19;;;-4.99;93.50
63700;BME280;49845;47.130;142.766;2024-01-30T00:18:58;101287.38;;;-4.97;92.49
63700;BME280;49845;47.130;142.766;2024-01-30T00:21:32;101289.53;;;-4.90;91.79
63700;BME280;49845;47.130;142.766;2024-01-30T00:24:02;101286.00;;;-4.92;91.90
63700;BME280;49845;47.130;142.766;2024-01-30T00:26:33;101292.69;;;-4.94;91.61
63700;BME280;49845;47.130;142.766;2024-01-30T00:29:03;101303.38;;;-5.00;91.26
63700;BME280;49845;47.130;142.766;2024-01-30T00:31:34;101286.13;;;-5.04;90.36
63700;BME280;49845;47.130;142.766;2024-01-30T00:34:08;101295.81;;;-4.98;90.35
63700;BME280;49845;47.130;142.766;2024-01-30T00:36:40;101296.59;;;-4.86;89.90
63700;BME280;49845;47.130;142.766;2024-01-30T00:39:11;101286.56;;;-4.83;89.47
63700;BME280;49845;47.130;142.766;2024-01-30T00:41:41;101276.19;;;-4.86;88.42
63700;BME280;49845;47.130;142.766;2024-01-30T00:44:11;101286.47;;;-4.71;87.54
63700;BME280;49845;47.130;142.766;2024-01-30T00:46:42;101294.75;;;-4.60;88.47
63700;BME280;49845;47.130;142.766;2024-01-30T00:49:12;101295.69;;;-4.45;88.40
63700;BME280;49845;47.130;142.766;2024-01-30T00:51:44;101293.34;;;-4.42;86.60
63700;BME280;49845;47.130;142.766;2024-01-30T00:54:15;101304.66;;;-4.51;86.34
63700;BME280;49845;47.130;142.766;2024-01-30T00:56:45;101296.91;;;-4.53;86.86
63700;BME280;49845;47.130;142.766;2024-01-30T00:59:16;101302.31;;;-4.34;86.39
63700;BME280;49845;47.130;142.766;2024-01-30T01:01:46;101286.09;;;-4.06;85.98
63700;BME280;49845;47.130;142.766;2024-01-30T01:04:17;101303.91;;;-3.63;85.05
63700;BME280;49845;47.130;142.766;2024-01-30T01:06:49;101293.13;;;-3.42;83.39
63700;BME280;49845;47.130;142.766;2024-01-30T01:09:19;101285.47;;;-3.42;82.52
63700;BME280;49845;47.130;142.766;2024-01-30T01:11:50;101303.91;;;-3.33;80.85
63700;BME280;49845;47.130;142.766;2024-01-30T01:14:20;101298.63;;;-3.36;80.93
63700;BME280;49845;47.130;142.766;2024-01-30T01:16:51;101248.88;;;-3.87;80.65
63700;BME280;49845;47.130;142.766;2024-01-30T01:19:21;101302.16;;;-3.64;80.76
63700;BME280;49845;47.130;142.766;2024-01-30T01:21:53;101299.94;;;-3.58;80.47
63700;BME280;49845;47.130;142.766;2024-01-30T01:24:24;101292.53;;;-3.38;80.84
63700;BME280;49845;47.130;142.766;2024-01-30T01:26:54;101293.84;;;-3.30;79.78
63700;BME280;49845;47.130;142.766;2024-01-30T01:29:25;101302.38;;;-3.30;79.33
63700;BME280;49845;47.130;142.766;2024-01-30T01:31:57;101288.41;;;-3.36;78.67
63700;BME280;49845;47.130;142.766;2024-01-30T01:34:28;101281.16;;;-3.43;78.08
63700;BME280;49845;47.130;142.766;2024-01-30T01:37:00;101281.44;;;-3.54;78.25
63700;BME280;49845;47.130;142.766;2024-01-30T01:39:31;101270.78;;;-3.47;78.94
63700;BME280;49845;47.130;142.766;2024-01-30T01:42:01;101273.78;;;-3.39;78.90
63700;BME280;49845;47.130;142.766;2024-01-30T01:44:31;101268.00;;;-3.35;78.04
63700;BME280;49845;47.130;142.766;2024-01-30T01:47:02;101271.97;;;-3.25;77.73
63700;BME280;49845;47.130;142.766;2024-01-30T01:49:32;101265.72;;;-3.30;77.05
63700;BME280;49845;47.130;142.766;2024-01-30T01:52:05;101274.25;;;-3.30;76.59
63700;BME280;49845;47.130;142.766;2024-01-30T01:54:36;101259.97;;;-3.11;76.60
63700;BME280;49845;47.130;142.766;2024-01-30T01:57:07;101266.94;;;-2.92;76.44
63700;BME280;49845;47.130;142.766;2024-01-30T01:59:37;101263.78;;;-2.55;75.93
63700;BME280;49845;47.130;142.766;2024-01-30T02:02:11;101263.13;;;-2.35;74.81
63700;BME280;49845;47.130;142.766;2024-01-30T02:04:44;101262.69;;;-2.10;74.49
63700;BME280;49845;47.130;142.766;2024-01-30T02:07:17;101263.56;;;-1.93;71.90
63700;BME280;49845;47.130;142.766;2024-01-30T02:09:48;101258.28;;;-1.96;71.98
63700;BME280;49845;47.130;142.766;2024-01-30T02:12:19;101259.88;;;-1.98;71.69
63700;BME280;49845;47.130;142.766;2024-01-30T02:14:49;101259.28;;;-2.10;71.10
63700;BME280;49845;47.130;142.766;2024-01-30T02:17:20;101252.25;;;-2.14;71.67
63700;BME280;49845;47.130;142.766;2024-01-30T02:19:52;101234.97;;;-2.19;71.60
63700;BME280;49845;47.130;142.766;2024-01-30T02:22:24;101245.34;;;-2.15;70.13
63700;BME280;49845;47.130;142.766;2024-01-30T02:24:55;101235.72;;;-2.03;70.28
63700;BME280;49845;47.130;142.766;2024-01-30T02:27:25;101238.28;;;-2.03;68.98
63700;BME280;49845;47.130;142.766;2024-01-30T02:29:56;101229.25;;;-2.13;68.57
63700;BME280;49845;47.130;142.766;2024-01-30T02:32:26;101235.09;;;-1.99;69.36
63700;BME280;49845;47.130;142.766;2024-01-30T02:34:56;101225.00;;;-2.12;70.05
63700;BME280;49845;47.130;142.766;2024-01-30T02:37:28;101241.38;;;-2.43;69.25
63700;BME280;49845;47.130;142.766;2024-01-30T02:39:59;101237.31;;;-2.56;69.54
63700;BME280;49845;47.130;142.766;2024-01-30T02:42:29;101227.47;;;-2.48;70.30
63700;BME280;49845;47.130;142.766;2024-01-30T02:45:00;101227.38;;;-2.50;69.71
63700;BME280;49845;47.130;142.766;2024-01-30T02:47:30;101229.53;;;-2.57;69.24
63700;BME280;49845;47.130;142.766;2024-01-30T02:50:01;101217.91;;;-2.69;69.01
63700;BME280;49845;47.130;142.766;2024-01-30T02:52:33;101220.94;;;-2.59;68.75
63700;BME280;49845;47.130;142.766;2024-01-30T02:55:04;101219.97;;;-2.62;68.71
63700;BME280;49845;47.130;142.766;2024-01-30T02:57:35;101214.38;;;-2.71;69.32
63700;BME280;49845;47.130;142.766;2024-01-30T03:00:06;101213.56;;;-2.70;69.31
63700;BME280;49845;47.130;142.766;2024-01-30T03:02:37;101211.16;;;-2.50;69.70
63700;BME280;49845;47.130;142.766;2024-01-30T03:05:08;101203.81;;;-2.61;69.49
63700;BME280;49845;47.130;142.766;2024-01-30T03:07:40;101205.09;;;-2.69;69.68
63700;BME280;49845;47.130;142.766;2024-01-30T03:10:11;101203.16;;;-2.73;70.23
63700;BME280;49845;47.130;142.766;2024-01-30T03:12:41;101191.03;;;-2.77;70.39
63700;BME280;49845;47.130;142.766;2024-01-30T03:15:12;101196.22;;;-2.75;70.26
63700;BME280;49845;47.130;142.766;2024-01-30T03:17:42;101188.53;;;-2.75;70.68
63700;BME280;49845;47.130;142.766;2024-01-30T03:20:13;101195.16;;;-2.63;70.06
63700;BME280;49845;47.130;142.766;2024-01-30T03:22:45;101184.41;;;-2.57;70.61
63700;BME280;49845;47.130;142.766;2024-01-30T03:25:16;101189.38;;;-2.42;71.02
63700;BME280;49845;47.130;142.766;2024-01-30T03:27:46;101191.66;;;-2.65;71.09
63700;BME280;49845;47.130;142.766;2024-01-30T03:30:17;101187.13;;;-2.87;71.81
63700;BME280;49845;47.130;142.766;2024-01-30T03:32:47;101191.03;;;-2.93;71.93
63700;BME280;49845;47.130;142.766;2024-01-30T03:35:19;101188.28;;;-3.13;72.52
63700;BME280;49845;47.130;142.766;2024-01-30T03:37:51;101185.72;;;-3.13;73.71
63700;BME280;49845;47.130;142.766;2024-01-30T03:40:21;101190.84;;;-3.13;74.18
63700;BME280;49845;47.130;142.766;2024-01-30T03:42:52;101190.84;;;-3.13;74.04
63700;BME280;49845;47.130;142.766;2024-01-30T03:45:22;101175.66;;;-3.10;74.20
63700;BME280;49845;47.130;142.766;2024-01-30T03:47:53;101187.88;;;-3.20;74.88
63700;BME280;49845;47.130;142.766;2024-01-30T03:50:23;101176.78;;;-3.21;75.78
63700;BME280;49845;47.130;142.766;2024-01-30T03:52:55;101176.78;;;-3.21;76.19
63700;BME280;49845;47.130;142.766;2024-01-30T03:55:26;101179.78;;;-3.28;74.83
63700;BME280;49845;47.130;142.766;2024-01-30T03:57:56;101175.03;;;-3.22;75.56
63700;BME280;49845;47.130;142.766;2024-01-30T04:00:27;101183.56;;;-3.21;75.60
63700;BME280;49845;47.130;142.766;2024-01-30T04:02:57;101183.41;;;-3.08;76.22
63700;BME280;49845;47.130;142.766;2024-01-30T04:05:28;101186.06;;;-3.07;76.05
63700;BME280;49845;47.130;142.766;2024-01-30T04:08:00;101189.56;;;-3.05;76.19
63700;BME280;49845;47.130;142.766;2024-01-30T04:10:30;101187.59;;;-2.94;76.39
63700;BME280;49845;47.130;142.766;2024-01-30T04:13:01;101185.28;;;-2.89;76.71
63700;BME280;49845;47.130;142.766;2024-01-30T04:15:31;101186.22;;;-2.71;75.93
63700;BME280;49845;47.130;142.766;2024-01-30T04:18:02;101187.34;;;-2.49;76.30
63700;BME280;49845;47.130;142.766;2024-01-30T04:20:33;101186.66;;;-2.29;75.92
63700;BME280;49845;47.130;142.766;2024-01-30T04:23:05;101189.38;;;-2.42;75.64
63700;BME280;49845;47.130;142.766;2024-01-30T04:25:36;101196.06;;;-2.62;77.14
63700;BME280;49845;47.130;142.766;2024-01-30T04:28:06;101195.31;;;-2.92;78.42
63700;BME280;49845;47.130;142.766;2024-01-30T04:30:37;101187.09;;;-3.19;79.56
63700;BME280;49845;47.130;142.766;2024-01-30T04:33:07;101187.41;;;-3.44;80.60
63700;BME280;49845;47.130;142.766;2024-01-30T04:35:38;101192.03;;;-3.54;80.64
63700;BME280;49845;47.130;142.766;2024-01-30T04:38:10;101194.19;;;-3.76;80.97
63700;BME280;49845;47.130;142.766;2024-01-30T04:40:40;101192.34;;;-3.94;82.59
63700;BME280;49845;47.130;142.766;2024-01-30T04:43:11;101187.16;;;-4.10;83.22
63700;BME280;49845;47.130;142.766;2024-01-30T04:45:41;101200.53;;;-4.29;86.20
63700;BME280;49845;47.130;142.766;2024-01-30T04:48:12;101202.44;;;-4.40;87.61
63700;BME280;49845;47.130;142.766;2024-01-30T04:50:42;101194.63;;;-4.43;88.97
63700;BME280;49845;47.130;142.766;2024-01-30T04:53:15;101203.13;;;-4.57;89.53
63700;BME280;49845;47.130;142.766;2024-01-30T04:55:45;101201.78;;;-4.65;89.63
63700;BME280;49845;47.130;142.766;2024-01-30T04:58:15;101207.13;;;-4.75;89.62
63700;BME280;49845;47.130;142.766;2024-01-30T05:00:46;101211.66;;;-4.85;89.62
63700;BME280;49845;47.130;142.766;2024-01-30T05:03:20;101147.47;;;-5.21;89.13
63700;BME280;49845;47.130;142.766;2024-01-30T05:05:52;101206.91;;;-4.93;89.21
63700;BME280;49845;47.130;142.766;2024-01-30T05:08:24;101215.00;;;-4.86;89.50
63700;BME280;49845;47.130;142.766;2024-01-30T05:10:54;101216.00;;;-4.84;89.33
63700;BME280;49845;47.130;142.766;2024-01-30T05:13:25;101230.88;;;-4.77;89.31
63700;BME280;49845;47.130;142.766;2024-01-30T05:15:55;101223.00;;;-4.66;88.60
63700;BME280;49845;47.130;142.766;2024-01-30T05:18:26;101231.50;;;-4.66;86.68
63700;BME280;49845;47.130;142.766;2024-01-30T05:20:56;101230.91;;;-4.62;86.47
63700;BME280;49845;47.130;142.766;2024-01-30T05:23:28;101230.06;;;-4.75;86.26
63700;BME280;49845;47.130;142.766;2024-01-30T05:25:59;101238.88;;;-4.99;87.20
63700;BME280;49845;47.130;142.766;2024-01-30T05:28:30;101242.88;;;-5.02;88.18
63700;BME280;49845;47.130;142.766;2024-01-30T05:31:01;101237.59;;;-5.05;88.14
63700;BME280;49845;47.130;142.766;2024-01-30T05:33:31;101249.56;;;-5.04;88.41
63700;BME280;49845;47.130;142.766;2024-01-30T05:36:03;101249.19;;;-5.10;88.88
63700;BME280;49845;47.130;142.766;2024-01-30T05:38:37;101252.94;;;-5.18;89.40
63700;BME280;49845;47.130;142.766;2024-01-30T05:41:08;101255.06;;;-5.25;90.23
63700;BME280;49845;47.130;142.766;2024-01-30T05:43:39;101259.41;;;-5.24;90.56
63700;BME280;49845;47.130;142.766;2024-01-30T05:46:12;101263.00;;;-5.20;90.28
63700;BME280;49845;47.130;142.766;2024-01-30T05:48:42;101269.38;;;-5.27;89.66
63700;BME280;49845;47.130;142.766;2024-01-30T05:51:13;101267.25;;;-5.34;89.40
63700;BME280;49845;47.130;142.766;2024-01-30T05:53:45;101273.13;;;-5.35;89.56
63700;BME280;49845;47.130;142.766;2024-01-30T05:56:15;101277.16;;;-5.38;89.28
63700;BME280;49845;47.130;142.766;2024-01-30T05:58:45;101284.69;;;-5.40;89.66
63700;BME280;49845;47.130;142.766;2024-01-30T06:01:16;101277.84;;;-5.41;89.84
63700;BME280;49845;47.130;142.766;2024-01-30T06:03:46;101264.69;;;-5.47;89.64
63700;BME280;49845;47.130;142.766;2024-01-30T06:06:17;101285.97;;;-5.33;89.86
63700;BME280;49845;47.130;142.766;2024-01-30T06:08:49;101281.03;;;-5.17;89.97
63700;BME280;49845;47.130;142.766;2024-01-30T06:11:20;101281.31;;;-5.12;89.05
63700;BME280;49845;47.130;142.766;2024-01-30T06:13:50;101291.94;;;-5.06;89.45
63700;BME280;49845;47.130;142.766;2024-01-30T06:16:20;101296.41;;;-5.02;88.84
63700;BME280;49845;47.130;142.766;2024-01-30T06:18:51;101300.16;;;-5.10;88.37
63700;BME280;49845;47.130;142.766;2024-01-30T06:21:22;101305.84;;;-5.28;87.45
63700;BME280;49845;47.130;142.766;2024-01-30T06:23:54;101302.50;;;-5.53;87.20
63700;BME280;49845;47.130;142.766;2024-01-30T06:26:24;101304.81;;;-5.70;87.67
63700;BME280;49845;47.130;142.766;2024-01-30T06:28:55;101310.69;;;-5.84;87.99
63700;BME280;49845;47.130;142.766;2024-01-30T06:31:25;101321.25;;;-5.91;88.75
63700;BME280;49845;47.130;142.766;2024-01-30T06:33:56;101324.28;;;-5.97;88.85
63700;BME280;49845;47.130;142.766;2024-01-30T06:36:26;101319.78;;;-6.01;89.04
63700;BME280;49845;47.130;142.766;2024-01-30T06:38:58;101323.59;;;-5.94;89.44
63700;BME280;49845;47.130;142.766;2024-01-30T06:41:29;101324.00;;;-6.01;89.53
63700;BME280;49845;47.130;142.766;2024-01-30T06:43:59;101331.22;;;-5.94;90.45
63700;BME280;49845;47.130;142.766;2024-01-30T06:46:29;101328.09;;;-5.90;90.55
63700;BME280;49845;47.130;142.766;2024-01-30T06:49:00;101333.22;;;-6.15;89.47
63700;BME280;49845;47.130;142.766;2024-01-30T06:51:31;101337.09;;;-6.45;90.06
63700;BME280;49845;47.130;142.766;2024-01-30T06:54:03;101337.94;;;-6.70;90.43
63700;BME280;49845;47.130;142.766;2024-01-30T06:56:34;101338.97;;;-6.91;91.00
63700;BME280;49845;47.130;142.766;2024-01-30T06:59:04;101334.56;;;-7.06;91.45
63700;BME280;49845;47.130;142.766;2024-01-30T07:01:34;101347.81;;;-7.10;91.42
63700;BME280;49845;47.130;142.766;2024-01-30T07:04:05;101363.28;;;-7.07;91.99
63700;BME280;49845;47.130;142.766;2024-01-30T07:06:35;101354.25;;;-7.03;92.31
63700;BME280;49845;47.130;142.766;2024-01-30T07:09:08;101351.16;;;-7.11;91.69
63700;BME280;49845;47.130;142.766;2024-01-30T07:11:38;101372.91;;;-7.03;91.20
63700;BME280;49845;47.130;142.766;2024-01-30T07:14:09;101364.38;;;-7.15;90.38
63700;BME280;49845;47.130;142.766;2024-01-30T07:16:40;101375.19;;;-7.29;90.10
63700;BME280;49845;47.130;142.766;2024-01-30T07:19:10;101374.97;;;-7.32;90.07
63700;BME280;49845;47.130;142.766;2024-01-30T07:21:41;101379.88;;;-7.24;90.53
63700;BME280;49845;47.130;142.766;2024-01-30T07:24:13;101378.09;;;-7.13;90.14
63700;BME280;49845;47.130;142.766;2024-01-30T07:26:43;101381.63;;;-7.11;90.09
63700;BME280;49845;47.130;142.766;2024-01-30T07:29:14;101382.84;;;-7.06;89.86
63700;BME280;49845;47.130;142.766;2024-01-30T07:31:44;101385.38;;;-7.06;89.30
63700;BME280;49845;47.130;142.766;2024-01-30T07:34:15;101400.38;;;-6.97;88.77
63700;BME280;49845;47.130;142.766;2024-01-30T07:36:45;101381.59;;;-6.99;88.25
63700;BME280;49845;47.130;142.766;2024-01-30T07:39:18;101393.53;;;-7.10;86.98
63700;BME280;49845;47.130;142.766;2024-01-30T07:41:48;101388.91;;;-7.27;86.08
63700;BME280;49845;47.130;142.766;2024-01-30T07:44:19;101388.00;;;-7.40;84.94
63700;BME280;49845;47.130;142.766;2024-01-30T07:46:49;101385.66;;;-7.60;83.61
63700;BME280;49845;47.130;142.766;2024-01-30T07:49:19;101395.44;;;-7.65;82.51
63700;BME280;49845;47.130;142.766;2024-01-30T07:51:50;101404.03;;;-7.74;81.67
63700;BME280;49845;47.130;142.766;2024-01-30T07:54:22;101401.72;;;-8.05;80.84
63700;BME280;49845;47.130;142.766;2024-01-30T07:56:52;101403.25;;;-8.07;81.38
63700;BME280;49845;47.130;142.766;2024-01-30T07:59:23;101407.94;;;-7.90;83.92
63700;BME280;49845;47.130;142.766;2024-01-30T08:01:53;101408.66;;;-7.81;84.67
63700;BME280;49845;47.130;142.766;2024-01-30T08:04:24;101407.56;;;-7.72;84.21
63700;BME280;49845;47.130;142.766;2024-01-30T08:06:55;101419.47;;;-7.71;81.41
63700;BME280;49845;47.130;142.766;2024-01-30T08:09:27;101413.97;;;-7.77;79.30
63700;BME280;49845;47.130;142.766;2024-01-30T08:11:57;101417.03;;;-7.82;78.59
63700;BME280;49845;47.130;142.766;2024-01-30T08:14:28;101420.50;;;-7.91;76.14
63700;BME280;49845;47.130;142.766;2024-01-30T08:16:58;101429.09;;;-8.01;75.85
63700;BME280;49845;47.130;142.766;2024-01-30T08:19:29;101435.47;;;-8.06;76.54
63700;BME280;49845;47.130;142.766;2024-01-30T08:21:59;101433.22;;;-8.13;75.92
63700;BME280;49845;47.130;142.766;2024-01-30T08:24:31;101437.34;;;-8.26;74.08
63700;BME280;49845;47.130;142.766;2024-01-30T08:27:02;101441.69;;;-8.35;74.38
63700;BME280;49845;47.130;142.766;2024-01-30T08:29:33;101450.91;;;-8.47;73.69
63700;BME280;49845;47.130;142.766;2024-01-30T08:32:05;101454.78;;;-8.62;73.71
63700;BME280;49845;47.130;142.766;2024-01-30T08:34:36;101456.06;;;-8.68;73.16
63700;BME280;49845;47.130;142.766;2024-01-30T08:37:06;101461.13;;;-8.68;73.09
63700;BME280;49845;47.130;142.766;2024-01-30T08:39:38;101454.91;;;-8.71;73.59
63700;BME280;49845;47.130;142.766;2024-01-30T08:42:09;101466.44;;;-8.64;72.68
63700;BME280;49845;47.130;142.766;2024-01-30T08:44:39;101462.88;;;-8.66;72.58
63700;BME280;49845;47.130;142.766;2024-01-30T08:47:10;101462.63;;;-8.70;72.62
63700;BME280;49845;47.130;142.766;2024-01-30T08:49:40;101465.22;;;-8.80;72.21
63700;BME280;49845;47.130;142.766;2024-01-30T08:52:12;101466.72;;;-8.82;72.37
63700;BME280;49845;47.130;142.766;2024-01-30T08:54:44;101473.31;;;-8.84;72.74
63700;BME280;49845;47.130;142.766;2024-01-30T08:57:15;101472.03;;;-8.79;73.13
63700;BME280;49845;47.130;142.766;2024-01-30T08:59:45;101476.09;;;-8.91;72.72
63700;BME280;49845;47.130;142.766;2024-01-30T09:02:16;101488.03;;;-8.90;72.77
63700;BME280;49845;47.130;142.766;2024-01-30T09:04:46;101487.78;;;-8.93;72.40
63700;BME280;49845;47.130;142.766;2024-01-30T09:07:17;101489.16;;;-8.97;73.18
63700;BME280;49845;47.130;142.766;2024-01-30T09:09:49;101489.31;;;-8.95;72.97
63700;BME280;49845;47.130;142.766;2024-01-30T09:12:20;101486.88;;;-8.94;73.58
63700;BME280;49845;47.130;142.766;2024-01-30T09:14:51;101481.94;;;-8.92;73.87
63700;BME280;49845;47.130;142.766;2024-01-30T09:17:21;101484.47;;;-8.92;74.49
63700;BME280;49845;47.130;142.766;2024-01-30T09:19:52;101472.59;;;-8.93;74.70
63700;BME280;49845;47.130;142.766;2024-01-30T09:22:22;101486.00;;;-8.94;74.02
63700;BME280;49845;47.130;142.766;2024-01-30T09:24:55;101480.56;;;-8.99;73.62
63700;BME280;49845;47.130;142.766;2024-01-30T09:27:25;101480.22;;;-9.03;73.32
63700;BME280;49845;47.130;142.766;2024-01-30T09:29:56;101450.97;;;-9.20;73.80
63700;BME280;49845;47.130;142.766;2024-01-30T09:32:26;101476.38;;;-9.08;73.73
63700;BME280;49845;47.130;142.766;2024-01-30T09:34:57;101489.81;;;-9.09;73.70
63700;BME280;49845;47.130;142.766;2024-01-30T09:37:27;101494.25;;;-9.07;74.15
63700;BME280;49845;47.130;142.766;2024-01-30T09:39:59;101491.75;;;-9.38;72.74
63700;BME280;49845;47.130;142.766;2024-01-30T09:42:34;101490.00;;;-9.88;71.11
63700;BME280;49845;47.130;142.766;2024-01-30T09:45:06;101498.06;;;-10.13;71.97
63700;BME280;49845;47.130;142.766;2024-01-30T09:47:41;101496.66;;;-10.49;71.88
63700;BME280;49845;47.130;142.766;2024-01-30T09:50:13;101501.09;;;-10.75;71.89
63700;BME280;49845;47.130;142.766;2024-01-30T09:52:44;101495.63;;;-10.99;73.12
63700;BME280;49845;47.130;142.766;2024-01-30T09:55:16;101492.50;;;-11.15;73.84
63700;BME280;49845;47.130;142.766;2024-01-30T09:57:47;101507.19;;;-11.39;74.39
63700;BME280;49845;47.130;142.766;2024-01-30T10:00:17;101508.50;;;-11.61;76.49
63700;BME280;49845;47.130;142.766;2024-01-30T10:02:48;101494.03;;;-11.73;77.78
63700;BME280;49845;47.130;142.766;2024-01-30T10:05:19;101500.38;;;-11.67;79.04
63700;BME280;49845;47.130;142.766;2024-01-30T10:07:57;101496.53;;;-11.45;80.20
63700;BME280;49845;47.130;142.766;2024-01-30T10:10:29;101494.06;;;-11.07;81.27
63700;BME280;49845;47.130;142.766;2024-01-30T10:12:59;101488.06;;;-11.18;79.92
63700;BME280;49845;47.130;142.766;2024-01-30T10:15:32;101492.63;;;-11.14;79.57
63700;BME280;49845;47.130;142.766;2024-01-30T10:18:04;101496.00;;;-11.13;81.27
63700;BME280;49845;47.130;142.766;2024-01-30T10:20:35;101503.25;;;-11.26;80.18
63700;BME280;49845;47.130;142.766;2024-01-30T10:23:06;101511.56;;;-11.27;79.24
63700;BME280;49845;47.130;142.766;2024-01-30T10:25:39;101514.31;;;-11.43;78.51
63700;BME280;49845;47.130;142.766;2024-01-30T10:28:10;101508.22;;;-11.64;78.23
63700;BME280;49845;47.130;142.766;2024-01-30T10:30:40;101510.91;;;-11.72;77.62
63700;BME280;49845;47.130;142.766;2024-01-30T10:33:11;101523.84;;;-12.13;77.08
63700;BME280;49845;47.130;142.766;2024-01-30T10:35:41;101523.75;;;-12.32;77.21
63700;BME280;49845;47.130;142.766;2024-01-30T10:38:15;101527.63;;;-12.53;77.64
63700;BME280;49845;47.130;142.766;2024-01-30T10:40:48;101466.53;;;-12.87;78.37
63700;BME280;49845;47.130;142.766;2024-01-30T10:43:22;101512.41;;;-12.81;78.26
63700;BME280;49845;47.130;142.766;2024-01-30T10:45:54;101526.28;;;-13.11;77.33
63700;BME280;49845;47.130;142.766;2024-01-30T10:48:30;101540.47;;;-13.55;77.87
63700;BME280;49845;47.130;142.766;2024-01-30T10:51:03;101530.66;;;-13.69;79.49
63700;BME280;49845;47.130;142.766;2024-01-30T10:53:35;101538.59;;;-13.73;80.32
63700;BME280;49845;47.130;142.766;2024-01-30T10:56:08;101542.41;;;-13.85;80.65
63700;BME280;49845;47.130;142.766;2024-01-30T10:58:40;101533.84;;;-13.79;81.38
63700;BME280;49845;47.130;142.766;2024-01-30T11:01:11;101542.72;;;-13.82;81.30
63700;BME280;49845;47.130;142.766;2024-01-30T11:03:42;101540.31;;;-13.89;82.05
63700;BME280;49845;47.130;142.766;2024-01-30T11:06:13;101536.03;;;-14.15;81.92
63700;BME280;49845;47.130;142.766;2024-01-30T11:08:46;101533.66;;;-14.22;83.14
63700;BME280;49845;47.130;142.766;2024-01-30T11:11:32;101532.72;;;-14.31;83.70
63700;BME280;49845;47.130;142.766;2024-01-30T11:14:02;101532.16;;;-14.20;84.48
63700;BME280;49845;47.130;142.766;2024-01-30T11:16:33;101533.88;;;-14.37;84.52
63700;BME280;49845;47.130;142.766;2024-01-30T11:19:03;101530.13;;;-14.40;85.06
63700;BME280;49845;47.130;142.766;2024-01-30T11:21:41;101533.78;;;-14.45;85.18
63700;BME280;49845;47.130;142.766;2024-01-30T11:24:14;101526.34;;;-14.61;85.40
63700;BME280;49845;47.130;142.766;2024-01-30T11:26:46;101534.06;;;-14.75;85.34
63700;BME280;49845;47.130;142.766;2024-01-30T11:29:17;101473.66;;;-15.17;86.42
63700;BME280;49845;47.130;142.766;2024-01-30T11:31:54;101528.81;;;-14.86;87.06
63700;BME280;49845;47.130;142.766;2024-01-30T11:34:26;101539.50;;;-14.80;87.07
63700;BME280;49845;47.130;142.766;2024-01-30T11:36:57;101508.13;;;-14.92;87.12
63700;BME280;49845;47.130;142.766;2024-01-30T11:39:30;101526.00;;;-14.89;85.99
63700;BME280;49845;47.130;142.766;2024-01-30T11:42:03;101517.56;;;-15.05;85.81
63700;BME280;49845;47.130;142.766;2024-01-30T11:44:35;101543.00;;;-15.02;85.53
63700;BME280;49845;47.130;142.766;2024-01-30T11:47:05;101538.38;;;-15.06;85.58
63700;BME280;49845;47.130;142.766;2024-01-30T11:49:36;101542.72;;;-15.12;85.91
63700;BME280;49845;47.130;142.766;2024-01-30T11:52:06;101537.41;;;-15.15;86.49
63700;BME280;49845;47.130;142.766;2024-01-30T11:54:39;101535.31;;;-15.19;86.51
63700;BME280;49845;47.130;142.766;2024-01-30T11:57:12;101533.53;;;-15.21;86.07
63700;BME280;49845;47.130;142.766;2024-01-30T11:59:42;101528.44;;;-15.29;85.41
63700;BME280;49845;47.130;142.766;2024-01-30T12:02:16;101531.25;;;-15.42;85.91
63700;BME280;49845;47.130;142.766;2024-01-30T12:04:47;101537.41;;;-15.47;86.22
63700;BME280;49845;47.130;142.766;2024-01-30T12:07:17;101540.63;;;-15.48;86.18
63700;BME280;49845;47.130;142.766;2024-01-30T12:09:53;101530.72;;;-15.62;86.05
63700;BME280;49845;47.130;142.766;2024-01-30T12:12:26;101544.38;;;-15.68;85.70
63700;BME280;49845;47.130;142.766;2024-01-30T12:14:57;101550.38;;;-15.58;86.34
63700;BME280;49845;47.130;142.766;2024-01-30T12:17:29;101385.88;;;-16.37;86.73
63700;BME280;49845;47.130;142.766;2024-01-30T12:20:06;101465.03;;;-15.92;85.41
63700;BME280;49845;47.130;142.766;2024-01-30T12:22:39;101511.78;;;-15.99;84.91
63700;BME280;49845;47.130;142.766;2024-01-30T12:25:10;101540.38;;;-15.97;86.02
63700;BME280;49845;47.130;142.766;2024-01-30T12:27:45;101522.56;;;-16.08;87.08
63700;BME280;49845;47.130;142.766;2024-01-30T12:30:21;101538.59;;;-15.98;87.90
63700;BME280;49845;47.130;142.766;2024-01-30T12:32:51;101539.28;;;-15.92;88.50
63700;BME280;49845;47.130;142.766;2024-01-30T12:35:23;101537.03;;;-15.82;89.11
63700;BME280;49845;47.130;142.766;2024-01-30T12:37:58;101519.41;;;-15.75;89.92
63700;BME280;49845;47.130;142.766;2024-01-30T12:40:29;101519.78;;;-15.72;89.23
63700;BME280;49845;47.130;142.766;2024-01-30T12:43:01;101526.28;;;-15.81;88.26
63700;BME280;49845;47.130;142.766;2024-01-30T12:45:32;101533.16;;;-15.87;88.60
63700;BME280;49845;47.130;142.766;2024-01-30T12:48:02;101544.94;;;-15.86;89.14